Time;durP1;ratioP1;P1;durP2;ratioP2;P2;SDS_P1;SDS_P2;PMS_P1;PMS_P2;Temp;Humidity;BMP_temperature;BMP_pressure;BME280_temperature;BME280_humidity;BME280_pressure;Samples;Min_cycle;Max_cycle;Signal;HPM_P1;HPM_P2
2022/07/28 00:00:04;;;;;;;12.30;11.50;;;16.00;99.90;;;;;;5042791;28;20982;-69
2022/07/28 00:02:31;;;;;;;12.50;11.40;;;15.90;99.90;;;;;;5041993;28;20476;-69
2022/07/28 00:04:58;;;;;;;12.50;11.40;;;15.90;99.90;;;;;;5043405;28;20464;-69
2022/07/28 00:07:25;;;;;;;12.67;11.97;;;15.90;99.90;;;;;;5041281;28;20459;-69
2022/07/28 00:09:52;;;;;;;13.73;12.30;;;15.90;99.90;;;;;;5033604;28;20468;-68
2022/07/28 00:12:21;;;;;;;11.60;11.00;;;15.80;99.90;;;;;;5043810;28;20497;-68
2022/07/28 00:14:50;;;;;;;12.13;11.33;;;15.80;99.90;;;;;;5040950;28;20506;-69
2022/07/28 00:17:17;;;;;;;12.70;12.10;;;15.80;99.90;;;;;;5040055;28;20475;-69
2022/07/28 00:19:46;;;;;;;12.50;12.00;;;15.70;99.90;;;;;;5038040;28;20471;-69
2022/07/28 00:22:13;;;;;;;12.10;11.17;;;15.80;99.90;;;;;;5042323;28;20832;-68
2022/07/28 00:24:41;;;;;;;12.17;11.27;;;15.80;99.90;;;;;;5040924;28;20472;-69
2022/07/28 00:27:09;;;;;;;12.70;12.00;;;15.70;99.90;;;;;;5040533;28;20460;-68
2022/07/28 00:29:37;;;;;;;11.80;11.20;;;15.70;99.90;;;;;;5036552;28;20465;-69
2022/07/28 00:32:05;;;;;;;13.47;12.77;;;15.60;99.90;;;;;;5042472;28;20493;-69
2022/07/28 00:34:33;;;;;;;11.97;11.20;;;15.60;99.90;;;;;;5038814;28;20460;-69
2022/07/28 00:37:00;;;;;;;12.70;11.90;;;15.40;99.90;;;;;;5044514;28;20555;-69
2022/07/28 00:39:27;;;;;;;11.90;11.17;;;15.50;99.90;;;;;;5042136;28;20453;-69
2022/07/28 00:41:54;;;;;;;13.23;12.07;;;15.40;99.90;;;;;;5042618;28;20623;-68
2022/07/28 00:44:21;;;;;;;12.10;11.40;;;15.30;99.90;;;;;;5038203;28;20460;-68
2022/07/28 00:46:49;;;;;;;11.97;11.37;;;15.20;99.90;;;;;;5041406;28;20472;-68
2022/07/28 00:49:16;;;;;;;12.70;11.93;;;15.30;99.90;;;;;;5037511;28;21092;-69
2022/07/28 00:51:43;;;;;;;11.83;11.03;;;15.30;99.90;;;;;;5034963;28;20878;-68
2022/07/28 00:54:10;;;;;;;12.17;11.47;;;15.30;99.90;;;;;;5041624;28;20475;-69
2022/07/28 00:56:37;;;;;;;12.43;11.73;;;15.30;99.90;;;;;;5039075;28;20472;-69
2022/07/28 00:59:04;;;;;;;11.37;10.50;;;15.20;99.90;;;;;;5038188;28;20824;-69
2022/07/28 01:01:32;;;;;;;12.80;11.90;;;15.20;99.90;;;;;;5037585;28;20888;-69
2022/07/28 01:04:02;;;;;;;12.27;11.47;;;15.20;99.90;;;;;;5037654;28;20463;-69
2022/07/28 01:06:48;;;;;;;12.77;11.53;;;15.30;99.90;;;;;;5046848;28;20468;-69
2022/07/28 01:09:25;;;;;;;13.60;12.80;;;15.30;99.90;;;;;;5039726;28;20654;-69
2022/07/28 01:12:00;;;;;;;13.47;12.27;;;15.30;99.90;;;;;;5039223;28;20999;-68
2022/07/28 01:14:35;;;;;;;12.47;11.87;;;15.30;99.90;;;;;;5034152;28;20464;-69
2022/07/28 01:17:07;;;;;;;12.30;11.60;;;15.30;99.90;;;;;;5039810;28;20467;-69
2022/07/28 01:19:40;;;;;;;12.57;11.73;;;15.30;99.90;;;;;;5036310;28;20464;-69
2022/07/28 01:22:10;;;;;;;12.27;11.50;;;15.40;99.90;;;;;;5038993;28;20470;-69
2022/07/28 01:24:47;;;;;;;11.93;11.13;;;15.30;99.90;;;;;;5038648;28;20463;-69
2022/07/28 01:27:26;;;;;;;11.93;11.13;;;15.40;99.90;;;;;;5042623;28;20545;-69
2022/07/28 01:30:04;;;;;;;12.27;11.37;;;15.40;99.90;;;;;;5039734;28;20470;-69
2022/07/28 01:32:39;;;;;;;12.07;11.57;;;15.40;99.90;;;;;;5038389;28;20495;-69
2022/07/28 01:35:12;;;;;;;11.70;11.10;;;15.30;99.90;;;;;;5037288;28;20551;-69
2022/07/28 01:37:44;;;;;;;12.23;11.53;;;15.30;99.90;;;;;;5039262;28;20468;-69
2022/07/28 01:40:15;;;;;;;13.10;11.90;;;15.30;99.90;;;;;;5037139;28;20484;-69
2022/07/28 01:42:46;;;;;;;12.20;11.40;;;15.30;99.90;;;;;;5033879;28;20465;-69
2022/07/28 01:45:14;;;;;;;12.70;11.90;;;15.30;99.90;;;;;;5044100;28;20455;-69
2022/07/28 01:47:45;;;;;;;11.13;10.63;;;15.30;99.90;;;;;;5035190;28;20464;-68
2022/07/28 01:50:14;;;;;;;12.73;11.80;;;15.30;99.90;;;;;;5036762;28;20506;-69
2022/07/28 01:52:41;;;;;;;13.40;12.47;;;15.20;99.90;;;;;;5037494;28;20484;-69
2022/07/28 01:55:10;;;;;;;12.20;11.60;;;15.30;99.90;;;;;;5042254;28;20460;-69
2022/07/28 01:57:37;;;;;;;12.73;11.73;;;15.20;99.90;;;;;;5036801;28;20858;-69
2022/07/28 02:00:08;;;;;;;12.50;11.57;;;15.20;99.90;;;;;;5040342;28;20467;-68
2022/07/28 02:02:37;;;;;;;13.90;11.97;;;15.20;99.90;;;;;;5042922;28;20452;-69
2022/07/28 02:05:07;;;;;;;12.67;12.07;;;15.20;99.90;;;;;;5041533;28;20473;-68
2022/07/28 02:07:36;;;;;;;12.43;11.63;;;15.20;99.90;;;;;;5037892;28;20471;-69
2022/07/28 02:10:05;;;;;;;13.17;12.10;;;15.10;99.90;;;;;;5034237;28;20479;-69
2022/07/28 02:12:35;;;;;;;12.33;11.83;;;15.10;99.90;;;;;;5040401;28;20855;-69
2022/07/28 02:15:03;;;;;;;12.57;11.77;;;15.10;99.90;;;;;;5039748;28;20479;-70
2022/07/28 02:17:32;;;;;;;13.23;12.60;;;15.00;99.90;;;;;;5042228;28;20472;-69
2022/07/28 02:20:01;;;;;;;12.20;11.37;;;15.00;99.90;;;;;;5043556;28;20951;-69
2022/07/28 02:22:31;;;;;;;12.57;11.97;;;15.00;99.90;;;;;;5041919;28;20478;-69
2022/07/28 02:24:58;;;;;;;12.40;11.80;;;15.00;99.90;;;;;;5037778;28;20483;-68
2022/07/28 02:27:34;;;;;;;13.17;12.27;;;15.00;99.90;;;;;;5041590;28;20455;-69
2022/07/28 02:30:05;;;;;;;12.17;11.47;;;14.90;99.90;;;;;;5042003;28;20455;-68
2022/07/28 02:32:38;;;;;;;13.07;12.27;;;14.80;99.90;;;;;;5039683;28;20488;-68
2022/07/28 02:35:09;;;;;;;14.50;13.30;;;14.70;99.90;;;;;;5043674;28;20554;-69
2022/07/28 02:37:42;;;;;;;12.37;11.77;;;14.60;99.90;;;;;;5043327;28;20456;-69
2022/07/28 02:40:13;;;;;;;12.90;12.20;;;14.50;99.90;;;;;;5039161;28;20882;-69
2022/07/28 02:42:44;;;;;;;12.27;11.50;;;14.50;99.90;;;;;;5043458;28;20471;-68
2022/07/28 02:45:15;;;;;;;12.97;12.10;;;14.40;99.90;;;;;;5043111;28;20471;-68
2022/07/28 02:47:46;;;;;;;12.73;11.93;;;14.40;99.90;;;;;;5042432;28;20825;-69
2022/07/28 02:50:16;;;;;;;13.23;12.23;;;14.30;99.90;;;;;;5040549;28;20471;-68
2022/07/28 02:52:47;;;;;;;13.00;12.30;;;14.20;99.90;;;;;;5044983;28;20852;-69
2022/07/28 02:55:17;;;;;;;12.80;11.60;;;14.10;99.90;;;;;;5047173;28;20471;-69
2022/07/28 02:57:45;;;;;;;12.27;11.30;;;14.00;99.90;;;;;;5037784;28;20452;-69
2022/07/28 03:00:14;;;;;;;12.33;11.53;;;13.90;99.90;;;;;;5038358;28;20959;-68
2022/07/28 03:02:45;;;;;;;11.90;11.20;;;13.80;99.90;;;;;;5042446;28;20469;-68
2022/07/28 03:05:15;;;;;;;12.50;11.83;;;13.60;99.90;;;;;;5041768;28;20469;-69
2022/07/28 03:07:45;;;;;;;12.67;11.60;;;13.50;99.90;;;;;;5039893;28;20519;-68
2022/07/28 03:10:20;;;;;;;12.83;12.13;;;13.30;99.90;;;;;;5043013;28;20959;-69
2022/07/28 03:12:47;;;;;;;12.77;11.97;;;13.10;99.90;;;;;;5045390;28;20572;-69
2022/07/28 03:15:14;;;;;;;11.97;11.17;;;12.90;99.90;;;;;;5043157;28;20487;-68
2022/07/28 03:17:41;;;;;;;12.47;11.53;;;12.90;99.90;;;;;;5040931;28;20480;-68
2022/07/28 03:20:10;;;;;;;12.70;11.70;;;12.80;99.90;;;;;;5044844;28;20518;-69
2022/07/28 03:22:37;;;;;;;13.00;11.67;;;12.80;99.90;;;;;;5037305;28;20462;-68
2022/07/28 03:25:10;;;;;;;12.67;11.87;;;12.70;99.90;;;;;;5047515;28;20463;-69
2022/07/28 03:27:41;;;;;;;11.43;10.90;;;12.60;99.90;;;;;;5045323;28;20467;-68
2022/07/28 03:30:14;;;;;;;12.80;11.70;;;12.60;99.90;;;;;;5041838;28;20464;-69
2022/07/28 03:32:46;;;;;;;14.67;10.90;;;12.50;99.90;;;;;;5039039;28;20870;-70
2022/07/28 03:35:14;;;;;;;12.37;11.37;;;12.40;99.90;;;;;;5042864;28;20507;-68
2022/07/28 03:37:46;;;;;;;11.33;10.73;;;12.40;99.90;;;;;;5045467;28;20655;-68
2022/07/28 03:40:15;;;;;;;11.93;11.23;;;12.40;99.90;;;;;;5035806;28;20495;-69
2022/07/28 03:42:46;;;;;;;11.67;10.47;;;12.40;99.90;;;;;;5040356;28;20979;-70
2022/07/28 03:45:14;;;;;;;13.37;12.10;;;12.30;99.90;;;;;;5044520;28;20816;-70
2022/07/28 03:47:49;;;;;;;12.80;11.80;;;12.20;99.90;;;;;;5042785;28;20460;-69
2022/07/28 03:50:17;;;;;;;12.50;11.63;;;12.20;99.90;;;;;;5040654;28;20472;-69
2022/07/28 03:52:43;;;;;;;11.93;11.10;;;12.10;99.90;;;;;;5040694;28;21022;-69
2022/07/28 03:55:12;;;;;;;12.10;11.37;;;12.00;99.90;;;;;;5043377;28;20460;-70
2022/07/28 03:57:40;;;;;;;11.47;10.67;;;11.90;99.90;;;;;;5041428;28;20820;-69
2022/07/28 04:00:08;;;;;;;11.73;11.03;;;11.90;99.90;;;;;;5040284;28;20463;-68
2022/07/28 04:02:35;;;;;;;11.93;11.33;;;11.90;99.90;;;;;;5022483;28;20959;-68
2022/07/28 04:05:02;;;;;;;11.67;11.07;;;11.80;99.90;;;;;;5015073;28;20468;-68
2022/07/28 04:07:28;;;;;;;11.80;11.20;;;11.80;99.90;;;;;;5016583;28;20460;-68
2022/07/28 04:09:55;;;;;;;13.07;12.20;;;11.80;99.90;;;;;;5017331;28;20465;-67
2022/07/28 04:12:22;;;;;;;12.57;11.50;;;11.80;99.90;;;;;;5017027;28;20626;-68
2022/07/28 04:14:50;;;;;;;12.80;11.77;;;11.80;99.90;;;;;;5017253;28;20891;-68
2022/07/28 04:17:17;;;;;;;12.30;11.60;;;11.80;99.90;;;;;;5014775;28;20698;-68
2022/07/28 04:19:44;;;;;;;12.40;11.60;;;11.80;99.90;;;;;;5017685;28;21021;-67
2022/07/28 04:22:11;;;;;;;12.23;11.63;;;11.90;99.90;;;;;;5016212;28;20460;-68
2022/07/28 04:24:38;;;;;;;12.87;12.10;;;11.80;99.90;;;;;;5016458;28;20506;-67
2022/07/28 04:27:05;;;;;;;13.30;12.27;;;11.80;99.90;;;;;;5016669;28;20472;-68
2022/07/28 04:29:33;;;;;;;13.47;12.47;;;11.90;99.90;;;;;;5015291;28;20454;-67
2022/07/28 04:32:01;;;;;;;12.80;11.80;;;12.00;99.90;;;;;;5016102;28;20472;-67
2022/07/28 04:34:28;;;;;;;11.67;10.90;;;12.10;99.90;;;;;;5016486;28;20495;-67
2022/07/28 04:36:55;;;;;;;12.27;11.47;;;12.20;99.90;;;;;;5017029;28;20464;-67
2022/07/28 04:39:23;;;;;;;12.47;11.47;;;12.20;99.90;;;;;;5015154;28;20465;-67
2022/07/28 04:41:51;;;;;;;12.60;11.50;;;12.20;99.90;;;;;;5016367;28;20910;-68
2022/07/28 04:44:18;;;;;;;11.97;11.27;;;12.30;99.90;;;;;;5016326;28;20488;-67
2022/07/28 04:46:45;;;;;;;10.90;10.20;;;12.40;99.90;;;;;;5016451;28;20477;-66
2022/07/28 04:49:13;;;;;;;11.87;11.17;;;12.50;99.90;;;;;;5015353;28;20976;-67
2022/07/28 04:51:40;;;;;;;12.40;11.50;;;12.50;99.90;;;;;;5016940;28;20657;-67
2022/07/28 04:54:07;;;;;;;12.50;11.60;;;12.60;99.90;;;;;;5015849;28;20857;-66
2022/07/28 04:56:34;;;;;;;12.57;11.63;;;12.80;99.90;;;;;;5016828;28;20472;-67
2022/07/28 04:59:01;;;;;;;11.80;11.10;;;12.80;99.90;;;;;;5014972;28;20472;-67
2022/07/28 05:01:28;;;;;;;12.80;11.90;;;13.00;99.90;;;;;;5015086;28;20863;-67
2022/07/28 05:03:55;;;;;;;13.37;12.30;;;13.00;99.90;;;;;;5015049;28;20460;-66
2022/07/28 05:06:23;;;;;;;14.20;13.10;;;13.10;99.90;;;;;;5016083;28;20473;-67
2022/07/28 05:08:50;;;;;;;13.17;12.30;;;13.20;99.90;;;;;;5015698;28;20533;-67
2022/07/28 05:11:17;;;;;;;13.93;12.63;;;13.40;99.90;;;;;;5016353;28;20566;-67
2022/07/28 05:13:44;;;;;;;12.80;12.20;;;13.50;99.90;;;;;;5014191;28;21010;-67
2022/07/28 05:16:11;;;;;;;13.20;12.03;;;13.70;99.90;;;;;;5016475;28;20587;-67
2022/07/28 05:18:37;;;;;;;13.03;12.33;;;13.90;99.90;;;;;;5016139;28;20460;-67
2022/07/28 05:21:04;;;;;;;13.40;12.60;;;13.90;99.90;;;;;;5016187;28;21389;-67
2022/07/28 05:23:32;;;;;;;14.07;12.80;;;14.10;99.90;;;;;;5016772;28;21455;-67
2022/07/28 05:26:00;;;;;;;14.63;13.43;;;14.30;99.90;;;;;;5015035;28;20563;-67
2022/07/28 05:28:27;;;;;;;13.60;12.90;;;14.40;99.90;;;;;;5014458;28;20574;-67
2022/07/28 05:30:54;;;;;;;15.03;13.53;;;14.50;99.90;;;;;;5016072;28;20473;-67
2022/07/28 05:33:21;;;;;;;14.87;13.60;;;14.50;99.90;;;;;;5016174;28;21048;-67
2022/07/28 05:35:53;;;;;;;14.63;13.47;;;14.50;99.90;;;;;;5017210;28;21113;-67
2022/07/28 05:38:20;;;;;;;14.60;13.40;;;14.60;99.90;;;;;;5016687;28;20468;-67
2022/07/28 05:40:49;;;;;;;13.87;12.77;;;14.70;99.90;;;;;;5015783;28;20491;-66
2022/07/28 05:43:17;;;;;;;14.07;13.07;;;14.80;99.90;;;;;;5015057;28;20464;-67
2022/07/28 05:45:43;;;;;;;14.47;13.40;;;14.90;99.90;;;;;;5016640;28;21179;-67
2022/07/28 05:48:10;;;;;;;14.17;13.30;;;14.80;99.90;;;;;;5015767;28;20515;-67
2022/07/28 05:50:37;;;;;;;15.07;13.87;;;15.10;99.90;;;;;;5016071;28;21111;-67
2022/07/28 05:53:04;;;;;;;14.37;13.50;;;15.20;99.90;;;;;;5020026;28;20492;-67
2022/07/28 05:55:31;;;;;;;14.53;13.73;;;15.20;99.90;;;;;;5017256;28;20464;-67
2022/07/28 05:58:00;;;;;;;14.30;13.60;;;15.60;99.90;;;;;;5017738;28;20472;-67
2022/07/28 06:00:27;;;;;;;15.10;13.77;;;15.50;99.90;;;;;;5040729;28;20543;-67
2022/07/28 06:02:54;;;;;;;16.20;14.93;;;15.40;99.90;;;;;;5016685;28;20476;-67
2022/07/28 06:05:22;;;;;;;15.13;14.17;;;15.50;99.90;;;;;;5016932;28;20456;-66
2022/07/28 06:07:50;;;;;;;15.17;14.17;;;15.50;99.90;;;;;;5017233;28;20516;-67
2022/07/28 06:10:20;;;;;;;16.43;15.27;;;15.60;99.90;;;;;;5016847;28;20469;-68
2022/07/28 06:12:48;;;;;;;20.20;14.23;;;15.90;99.90;;;;;;5016101;28;20478;-67
2022/07/28 06:15:17;;;;;;;15.67;14.33;;;16.20;99.90;;;;;;5017729;28;20484;-67
2022/07/28 06:17:44;;;;;;;15.93;14.83;;;16.20;99.90;;;;;;5016968;28;20462;-67
2022/07/28 06:20:12;;;;;;;16.10;14.87;;;16.20;99.90;;;;;;5015762;28;20462;-66
2022/07/28 06:22:43;;;;;;;15.53;14.37;;;16.30;99.90;;;;;;5017603;28;20473;-66
2022/07/28 06:25:15;;;;;;;16.43;15.10;;;16.10;99.90;;;;;;5017468;28;20467;-67
2022/07/28 06:27:41;;;;;;;15.10;14.30;;;16.10;99.90;;;;;;5017373;28;21032;-67
2022/07/28 06:30:09;;;;;;;16.87;15.43;;;16.10;99.90;;;;;;5016619;28;20471;-67
2022/07/28 06:32:37;;;;;;;15.97;14.63;;;16.10;99.90;;;;;;5017066;28;20461;-67
2022/07/28 06:35:05;;;;;;;15.83;14.53;;;16.30;99.90;;;;;;5017679;28;20709;-67
2022/07/28 06:37:32;;;;;;;14.93;14.03;;;16.30;99.90;;;;;;5017194;28;20460;-67
2022/07/28 06:39:59;;;;;;;14.77;13.77;;;16.40;99.90;;;;;;5016886;28;20497;-67
2022/07/28 06:42:26;;;;;;;15.20;13.93;;;16.50;99.90;;;;;;5016159;28;20475;-68
2022/07/28 06:44:54;;;;;;;14.30;13.50;;;16.80;99.90;;;;;;5016613;28;20475;-67
2022/07/28 06:47:21;;;;;;;15.60;14.30;;;17.00;99.90;;;;;;5016210;28;20470;-67
2022/07/28 06:49:49;;;;;;;14.40;13.70;;;17.20;99.90;;;;;;5016486;28;20478;-67
2022/07/28 06:52:19;;;;;;;15.37;13.87;;;17.00;99.90;;;;;;5016769;28;21068;-68
2022/07/28 06:54:47;;;;;;;16.43;15.13;;;16.90;99.90;;;;;;5017482;28;20526;-67
2022/07/28 06:57:14;;;;;;;16.20;14.70;;;17.00;99.90;;;;;;5017821;28;20923;-68
2022/07/28 06:59:41;;;;;;;15.80;14.33;;;16.90;99.90;;;;;;5004554;28;20465;-67
2022/07/28 07:02:08;;;;;;;24.03;15.40;;;16.80;99.90;;;;;;5024107;28;20471;-67
2022/07/28 07:04:35;;;;;;;14.60;13.60;;;16.90;99.90;;;;;;5042811;28;20456;-67
2022/07/28 07:07:03;;;;;;;14.90;14.10;;;17.00;99.90;;;;;;5032925;28;20460;-68
2022/07/28 07:09:30;;;;;;;14.77;14.03;;;17.10;99.90;;;;;;5015249;28;20511;-67
2022/07/28 07:11:58;;;;;;;15.30;14.40;;;17.30;99.90;;;;;;5016656;28;20513;-67
2022/07/28 07:14:25;;;;;;;16.00;14.37;;;17.30;99.90;;;;;;5017488;28;20530;-66
2022/07/28 07:16:53;;;;;;;15.70;14.70;;;17.30;99.90;;;;;;5015004;28;20881;-67
2022/07/28 07:19:20;;;;;;;15.40;14.50;;;17.60;99.90;;;;;;5041006;28;20533;-66
2022/07/28 07:21:47;;;;;;;16.27;14.63;;;17.70;99.90;;;;;;5027330;28;20515;-67
2022/07/28 07:24:16;;;;;;;15.80;14.37;;;17.90;99.90;;;;;;5032558;28;20452;-67
2022/07/28 07:26:43;;;;;;;23.33;14.30;;;17.90;99.90;;;;;;5020952;28;20547;-67
2022/07/28 07:29:11;;;;;;;16.23;15.00;;;18.00;99.90;;;;;;5009310;28;20452;-68
2022/07/28 07:31:39;;;;;;;15.67;14.67;;;18.10;99.90;;;;;;5016879;28;21135;-67
2022/07/28 07:34:06;;;;;;;15.67;14.77;;;18.10;99.90;;;;;;5012654;28;20750;-67
2022/07/28 07:36:33;;;;;;;15.90;14.93;;;18.20;99.90;;;;;;5015551;28;20473;-67
2022/07/28 07:39:00;;;;;;;15.33;14.30;;;18.20;99.90;;;;;;5017410;28;20451;-67
2022/07/28 07:41:28;;;;;;;14.87;14.10;;;18.50;99.90;;;;;;5016387;28;20506;-67
2022/07/28 07:43:55;;;;;;;16.57;15.30;;;18.60;99.90;;;;;;5015931;28;20966;-67
2022/07/28 07:46:22;;;;;;;16.23;15.10;;;18.70;99.90;;;;;;5018876;28;20468;-67
2022/07/28 07:48:49;;;;;;;16.00;15.00;;;18.80;99.90;;;;;;5018241;28;20467;-67
2022/07/28 07:51:16;;;;;;;15.97;15.00;;;18.90;99.90;;;;;;5016305;28;20464;-68
2022/07/28 07:53:43;;;;;;;16.27;15.00;;;19.10;99.90;;;;;;5018095;28;21055;-67
2022/07/28 07:56:10;;;;;;;16.27;15.13;;;19.00;99.90;;;;;;5017858;28;20463;-68
2022/07/28 07:58:53;;;;;;;15.90;14.70;;;19.20;99.90;;;;;;5037276;28;20547;-67
2022/07/28 08:01:20;;;;;;;16.07;14.93;;;19.30;99.90;;;;;;5033866;28;20522;-67
2022/07/28 08:03:47;;;;;;;16.23;15.17;;;19.30;99.90;;;;;;5017600;28;20471;-67
2022/07/28 08:06:14;;;;;;;15.50;14.50;;;19.30;99.90;;;;;;5036221;28;20468;-67
2022/07/28 08:08:41;;;;;;;16.23;15.07;;;19.30;99.90;;;;;;5041874;28;20452;-67
2022/07/28 08:11:09;;;;;;;15.67;14.57;;;19.50;99.90;;;;;;5033163;28;20456;-67
2022/07/28 08:13:36;;;;;;;15.93;15.10;;;19.60;99.90;;;;;;5036600;28;20461;-69
2022/07/28 08:16:04;;;;;;;16.80;15.20;;;19.80;99.90;;;;;;5041289;28;21018;-67
2022/07/28 08:18:31;;;;;;;16.33;14.87;;;19.70;99.90;;;;;;5031772;28;20469;-67
2022/07/28 08:20:58;;;;;;;17.37;15.73;;;19.70;99.90;;;;;;5015256;28;20455;-68
2022/07/28 08:23:25;;;;;;;16.40;15.30;;;19.80;99.90;;;;;;5014918;28;20903;-68
2022/07/28 08:25:52;;;;;;;16.60;15.40;;;19.50;99.90;;;;;;5016451;28;20456;-67
2022/07/28 08:28:19;;;;;;;15.47;14.67;;;20.10;99.90;;;;;;5013507;28;20456;-68
2022/07/28 08:30:46;;;;;;;16.60;15.30;;;20.50;99.90;;;;;;5015785;28;20464;-68
2022/07/28 08:33:20;;;;;;;16.13;14.90;;;20.90;99.90;;;;;;5038929;28;20471;-69
2022/07/28 08:35:48;;;;;;;16.47;14.70;;;21.90;99.90;;;;;;5024156;28;20499;-68
2022/07/28 08:38:15;;;;;;;15.60;14.47;;;22.30;99.90;;;;;;5014649;28;20981;-68
2022/07/28 08:40:44;;;;;;;15.77;14.60;;;22.50;99.90;;;;;;5016576;28;20488;-69
2022/07/28 08:43:25;;;;;;;15.60;14.70;;;22.80;99.90;;;;;;5020128;28;21218;-69
2022/07/28 08:45:53;;;;;;;16.07;14.77;;;23.20;99.40;;;;;;5015289;28;20460;-67
2022/07/28 08:48:23;;;;;;;16.23;14.87;;;23.60;98.50;;;;;;5015830;28;20567;-67
2022/07/28 08:50:51;;;;;;;15.80;14.77;;;24.20;96.60;;;;;;5016484;28;20522;-67
2022/07/28 08:53:21;;;;;;;16.00;15.00;;;24.10;95.50;;;;;;5015677;28;20468;-67
2022/07/28 08:55:48;;;;;;;15.00;14.20;;;24.20;95.50;;;;;;5015563;28;20496;-68
2022/07/28 08:58:17;;;;;;;15.33;14.47;;;23.40;94.30;;;;;;5014630;28;20456;-67
2022/07/28 09:00:46;;;;;;;15.83;14.63;;;24.20;95.00;;;;;;5014442;28;20982;-67
2022/07/28 09:03:14;;;;;;;15.67;14.77;;;24.50;93.90;;;;;;5013965;28;20494;-68
2022/07/28 09:05:43;;;;;;;15.90;14.90;;;25.10;92.70;;;;;;5014486;28;20469;-68
2022/07/28 09:08:11;;;;;;;15.97;14.67;;;25.70;91.20;;;;;;5014697;28;20477;-67
2022/07/28 09:10:38;;;;;;;15.83;14.80;;;25.90;89.10;;;;;;5014343;28;21013;-67
2022/07/28 09:13:05;;;;;;;16.37;14.90;;;25.90;84.90;;;;;;5015125;28;20472;-67
2022/07/28 09:15:33;;;;;;;16.60;15.10;;;26.40;83.80;;;;;;5015895;28;21128;-67
2022/07/28 09:18:01;;;;;;;15.60;14.40;;;26.10;78.90;;;;;;5015704;28;20464;-67
2022/07/28 09:20:29;;;;;;;16.40;15.40;;;25.70;82.70;;;;;;5015025;28;20459;-68
2022/07/28 09:22:59;;;;;;;16.37;15.17;;;25.90;79.90;;;;;;5015295;28;20469;-67
2022/07/28 09:25:27;;;;;;;16.70;15.57;;;26.50;79.00;;;;;;5015185;28;20457;-67
2022/07/28 09:27:55;;;;;;;17.43;15.70;;;26.90;76.30;;;;;;5015078;28;20448;-68
2022/07/28 09:30:30;;;;;;;16.00;15.10;;;27.10;73.90;;;;;;5015095;28;20487;-68
2022/07/28 09:33:17;;;;;;;16.60;14.90;;;26.10;73.80;;;;;;5016194;28;20593;-68
2022/07/28 09:35:46;;;;;;;16.17;15.13;;;26.60;73.80;;;;;;5015195;28;20483;-67
2022/07/28 09:38:14;;;;;;;15.87;14.90;;;27.00;72.30;;;;;;5015954;28;20464;-68
2022/07/28 09:40:41;;;;;;;16.90;15.10;;;27.50;71.30;;;;;;5015600;28;20488;-68
2022/07/28 09:43:10;;;;;;;14.90;14.20;;;28.00;68.70;;;;;;5015539;28;20798;-68
2022/07/28 09:45:37;;;;;;;15.50;14.70;;;27.70;65.60;;;;;;5015757;28;20581;-68
2022/07/28 09:48:11;;;;;;;16.67;15.47;;;27.50;62.80;;;;;;5015506;28;20472;-68
2022/07/28 09:50:39;;;;;;;15.60;14.80;;;28.20;64.20;;;;;;5016211;28;20945;-68
2022/07/28 09:53:24;;;;;;;16.40;15.40;;;28.10;61.80;;;;;;5015482;28;20968;-68
2022/07/28 09:55:55;;;;;;;15.30;14.40;;;27.30;61.00;;;;;;5014669;28;21017;-67
2022/07/28 09:58:22;;;;;;;16.10;15.10;;;28.00;61.30;;;;;;5014844;28;20514;-68
2022/07/28 10:00:49;;;;;;;17.30;16.00;;;28.20;60.20;;;;;;5016092;28;21097;-68
2022/07/28 10:03:39;;;;;;;15.90;14.87;;;28.50;57.90;;;;;;5037445;28;20834;-68
2022/07/28 10:06:08;;;;;;;16.07;15.10;;;27.80;58.00;;;;;;5035551;28;20468;-68
2022/07/28 10:08:45;;;;;;;15.63;14.73;;;27.20;59.40;;;;;;5039609;28;20464;-68
2022/07/28 10:11:13;;;;;;;16.03;14.50;;;28.20;58.50;;;;;;5032971;28;20464;-69
2022/07/28 10:13:52;;;;;;;15.13;14.20;;;28.40;57.70;;;;;;5015108;28;20464;-68
2022/07/28 10:16:21;;;;;;;16.40;14.80;;;28.20;56.60;;;;;;5014857;28;20561;-69
2022/07/28 10:18:48;;;;;;;15.17;14.47;;;29.30;57.90;;;;;;5014977;28;21131;-68
2022/07/28 10:21:19;;;;;;;15.23;14.20;;;29.80;54.50;;;;;;5014532;28;20464;-69
2022/07/28 10:23:49;;;;;;;15.87;14.90;;;28.40;54.60;;;;;;5025667;28;20551;-69
2022/07/28 10:26:19;;;;;;;14.60;13.80;;;28.80;53.60;;;;;;5036547;28;20469;-70
2022/07/28 10:28:48;;;;;;;14.87;14.07;;;28.90;53.60;;;;;;5015274;28;20468;-69
2022/07/28 10:31:38;;;;;;;15.27;14.40;;;28.70;55.00;;;;;;5014511;28;20471;-68
2022/07/28 10:34:07;;;;;;;15.60;14.70;;;28.90;52.90;;;;;;5014429;28;20456;-69
2022/07/28 10:36:35;;;;;;;16.13;14.83;;;29.10;52.60;;;;;;5015189;28;20467;-69
2022/07/28 10:39:14;;;;;;;16.43;15.23;;;28.50;52.40;;;;;;5017112;28;20460;-68
2022/07/28 10:41:42;;;;;;;14.93;14.13;;;28.30;53.00;;;;;;5017216;28;20602;-68
2022/07/28 10:44:12;;;;;;;15.80;14.70;;;28.10;52.50;;;;;;5016307;28;20472;-68
2022/07/28 10:46:41;;;;;;;15.13;14.23;;;27.20;53.40;;;;;;5017565;28;20481;-68
2022/07/28 10:49:10;;;;;;;14.60;13.90;;;28.00;53.10;;;;;;5018813;28;20463;-69
2022/07/28 10:51:37;;;;;;;15.27;14.27;;;27.30;53.70;;;;;;5018188;28;20460;-69
2022/07/28 10:54:13;;;;;;;14.63;13.50;;;27.50;52.90;;;;;;5018869;28;20467;-69
2022/07/28 10:56:52;;;;;;;14.10;13.30;;;28.10;53.30;;;;;;5024854;28;20475;-67
2022/07/28 10:59:56;;;;;;;15.93;14.43;;;27.80;53.40;;;;;;5042237;28;20456;-68
2022/07/28 11:02:50;;;;;;;14.17;13.47;;;28.10;53.00;;;;;;5023351;28;21256;-68
2022/07/28 11:05:31;;;;;;;14.93;14.03;;;28.70;51.80;;;;;;5017138;28;20468;-69
2022/07/28 11:08:00;;;;;;;15.97;14.90;;;29.30;51.00;;;;;;5016964;28;20467;-70
2022/07/28 11:10:30;;;;;;;15.47;14.63;;;29.90;49.90;;;;;;5017814;28;20464;-69
2022/07/28 11:12:59;;;;;;;15.17;14.27;;;29.90;49.40;;;;;;5017563;28;20839;-69
2022/07/28 11:15:31;;;;;;;15.87;14.70;;;29.40;49.60;;;;;;5017483;28;20502;-69
2022/07/28 11:18:05;;;;;;;16.20;15.00;;;30.30;49.70;;;;;;5018793;28;20470;-69
2022/07/28 11:21:06;;;;;;;17.30;15.40;;;31.10;48.60;;;;;;5018428;28;20469;-69
2022/07/28 11:23:45;;;;;;;15.63;14.57;;;31.00;48.00;;;;;;5017481;28;20475;-69
2022/07/28 11:26:37;;;;;;;15.30;14.50;;;31.20;46.90;;;;;;5035618;28;20879;-69
2022/07/28 11:29:21;;;;;;;16.97;14.57;;;30.70;46.80;;;;;;5021774;28;20514;-70
2022/07/28 11:32:05;;;;;;;15.60;14.70;;;31.10;46.50;;;;;;5016873;28;20485;-69
2022/07/28 11:35:14;;;;;;;15.10;14.40;;;31.50;44.80;;;;;;5013076;28;20963;-69
2022/07/28 11:38:07;;;;;;;15.47;14.10;;;30.70;45.90;;;;;;5017612;28;20504;-69
2022/07/28 11:40:36;;;;;;;15.80;14.70;;;30.20;46.30;;;;;;5017024;28;20515;-69
2022/07/28 11:43:30;;;;;;;15.23;14.43;;;31.30;45.40;;;;;;5017283;28;20460;-70
2022/07/28 11:46:24;;;;;;;16.67;15.10;;;32.70;43.30;;;;;;5016836;28;20470;-69
2022/07/28 11:49:23;;;;;;;14.80;14.00;;;33.00;42.30;;;;;;5017077;28;20475;-69
2022/07/28 11:52:13;;;;;;;14.57;13.63;;;32.50;42.20;;;;;;5016251;28;20955;-69
2022/07/28 11:54:42;;;;;;;14.90;14.07;;;32.00;43.30;;;;;;5016289;28;20486;-70
2022/07/28 11:57:10;;;;;;;15.47;14.37;;;32.60;43.20;;;;;;5016297;28;20459;-70
2022/07/28 11:59:47;;;;;;;14.90;13.70;;;32.10;42.60;;;;;;5016725;28;20835;-69
2022/07/28 12:02:19;;;;;;;15.73;14.60;;;31.80;42.60;;;;;;5016935;28;20898;-70
2022/07/28 12:04:54;;;;;;;14.77;13.87;;;32.40;41.80;;;;;;5015705;28;20476;-70
2022/07/28 12:07:31;;;;;;;15.00;14.10;;;32.00;42.50;;;;;;5015366;28;20475;-70
2022/07/28 12:10:24;;;;;;;15.07;13.93;;;31.40;43.10;;;;;;5027734;28;20534;-69
2022/07/28 12:12:51;;;;;;;15.80;14.87;;;31.60;43.20;;;;;;5015868;28;20467;-70
2022/07/28 12:15:35;;;;;;;14.67;13.97;;;32.20;42.90;;;;;;5014731;28;20899;-69
2022/07/28 12:18:02;;;;;;;15.50;14.70;;;32.50;41.10;;;;;;5015806;28;20841;-69
2022/07/28 12:20:31;;;;;;;15.97;15.07;;;31.70;42.60;;;;;;5015945;28;21034;-70
2022/07/28 12:23:00;;;;;;;16.07;15.20;;;31.70;42.10;;;;;;5018014;28;20567;-69
2022/07/28 12:25:27;;;;;;;15.40;14.50;;;30.70;43.00;;;;;;5017015;28;20472;-70
2022/07/28 12:27:55;;;;;;;15.87;14.80;;;29.90;43.90;;;;;;5016497;28;21120;-70
2022/07/28 12:30:23;;;;;;;16.10;15.10;;;30.20;44.90;;;;;;5015534;28;21133;-68
2022/07/28 12:32:51;;;;;;;16.00;14.60;;;30.30;43.60;;;;;;5017409;28;20555;-68
2022/07/28 12:35:19;;;;;;;14.50;13.80;;;30.70;43.90;;;;;;5017107;28;20483;-68
2022/07/28 12:37:49;;;;;;;15.20;13.80;;;30.80;43.60;;;;;;5016969;28;20831;-67
2022/07/28 12:40:17;;;;;;;14.80;14.00;;;31.50;42.30;;;;;;5017070;28;20483;-68
2022/07/28 12:42:44;;;;;;;14.87;14.13;;;31.80;43.30;;;;;;5016957;28;20614;-67